Flight Track Log - Related Links

Times and Time Zones

All times are in EDT time to prevent confusion due to time zone crossing. See the LOF3359 flight status page for this flight to view local times or setup timezone preferences in your user account.

Time Position Orientation Groundspeed Altitude Reporting Facility
EDT Latitude Longitude Course Direction KTS MPH feet Rate Location/Type
Wed 12:42:24 PM 38.9500 -77.5000 303° West 172 198 1,700  Level Potomac TRACON
Wed 12:43:18 PM 38.9333 -77.5667 252° West 226 260 3,100 2,000 Climbing Potomac TRACON
Wed 12:44:24 PM 38.9000 -77.6667 247° West 248 285 5,700 2,283 Climbing Potomac TRACON
Wed 12:44:50 PM 38.8947 -77.7119 261° West 255 293 6,600 2,651 Climbing Washington Center
Wed 12:45:00 PM 38.8717 -77.9316 293° West  Level FlightAware Approximate
Wed 12:45:50 PM 38.8869 -77.7972 263° West 270 311 9,500  Level Washington Center
Wed 12:46:00 PM 38.9043 -78.0503 288° West  Level FlightAware Approximate
Wed 12:46:50 PM 38.8747 -77.8981 261° West 287 330 10,100  Level Washington Center
Wed 12:47:00 PM 38.9349 -78.1698 303° West  Level FlightAware Approximate
Wed 12:47:50 PM 38.8956 -78.0028 284° West 320 368 10,100  Level Washington Center
Wed 12:48:50 PM 38.9325 -78.1267 291° West 341 392 10,200 700 Climbing Washington Center
Wed 12:49:50 PM 38.9594 -78.2317 288° West 347 399 11,500 1,500 Climbing Washington Center
Wed 12:50:50 PM 38.9647 -78.3681 273° West 347 399 13,200 1,550 Climbing Washington Center
Wed 12:51:50 PM 38.9683 -78.4803 272° West 352 405 14,600 1,350 Climbing Washington Center
Wed 12:52:50 PM 38.9733 -78.6142 273° West 369 425 15,900 1,350 Climbing Washington Center
Wed 12:53:50 PM 38.9783 -78.7453 273° West 369 425 17,300 1,500 Climbing Washington Center
Wed 12:54:50 PM 38.9831 -78.8842 273° West 369 425 18,900 1,450 Climbing Washington Center
Wed 12:55:50 PM 38.9819 -78.9964 269° West 364 419 20,200 1,500 Climbing Washington Center
Wed 12:56:50 PM 38.9839 -79.1433 271° West 369 425 21,900 1,500 Climbing Washington Center
Wed 12:57:50 PM 38.9928 -79.2694 275° West 382 440 23,200 1,400 Climbing Washington Center
Wed 12:58:50 PM 38.9950 -79.4003 271° West 387 445 24,700 1,450 Climbing Washington Center
Wed 12:59:50 PM 38.9969 -79.5314 271° West 387 445 26,100 1,400 Climbing Washington Center
Wed 01:00:50 PM 38.9989 -79.6622 271° West 381 438 27,500 950 Climbing Washington Center
Wed 01:01:50 PM 39.0022 -79.8067 272° West 371 427 28,000 160 Climbing Washington Center
Wed 01:03:57 PM 39.0042 -80.0808 271° West 408 470 28,000  Level Indianapolis Center
Wed 01:04:59 PM 39.0064 -80.2572 271° West 420 483 28,000  Level Indianapolis Center
Wed 01:06:01 PM 39.0086 -80.4058 271° West 419 482 28,000  Level Indianapolis Center
Wed 01:07:02 PM 39.0108 -80.5556 271° West 419 482 28,000  Level Indianapolis Center
Wed 01:08:04 PM 39.0658 -80.6842 299° West 419 482 28,000  Level Indianapolis Center
Wed 01:09:06 PM 39.1347 -80.8042 307° West 419 482 28,000  Level Indianapolis Center
Wed 01:10:08 PM 39.2064 -80.9239 308° West 425 489 28,000  Level Indianapolis Center
Wed 01:11:09 PM 39.2911 -81.0694 307° West 425 489 28,000  Level Indianapolis Center
Wed 01:12:11 PM 39.3625 -81.1922 307° West 430 495 28,000  Level Indianapolis Center
Wed 01:13:13 PM 39.4336 -81.3156 307° West 430 495 28,000  Level Indianapolis Center
Wed 01:14:14 PM 39.5019 -81.4353 307° West 418 481 28,000  Level Indianapolis Center
Wed 01:15:16 PM 39.5672 -81.5506 306° West 403 464 28,000  Level Indianapolis Center
Wed 01:16:18 PM 39.6322 -81.6631 307° West 393 452 28,000  Level Indianapolis Center
Wed 01:17:20 PM 39.7089 -81.8000 306° West 392 451 28,000  Level Indianapolis Center
Wed 01:18:21 PM 39.7681 -81.9019 307° West 401 461 28,000  Level Indianapolis Center
Wed 01:19:23 PM 39.8478 -82.0450 306° West 414 476 28,000  Level Indianapolis Center
Wed 01:20:25 PM 39.9189 -82.1694 307° West 423 487 28,000 -726 Level Indianapolis Center
Wed 01:21:27 PM 39.9889 -82.2956 306° West 426 490 26,500 -1,452 Descending Indianapolis Center
Wed 01:22:29 PM 40.0583 -82.4197 306° West 422 486 25,000 -1,512 Descending Indianapolis Center
Wed 01:23:30 PM 40.1269 -82.5436 306° West 419 482 23,400 -1,707 Descending Indianapolis Center
Wed 01:24:32 PM 40.1556 -82.6806 285° West 396 456 21,500 -1,887 Descending Indianapolis Center
Wed 01:25:34 PM 40.1639 -82.8181 275° West 382 440 19,500 -1,839 Descending Indianapolis Center
Wed 01:26:36 PM 40.1703 -82.9553 274° West 377 434 17,700 -2,000 Descending Indianapolis Center
Wed 01:27:37 PM 40.1786 -83.1169 274° West 381 438 15,400 -2,146 Descending Indianapolis Center
Wed 01:28:39 PM 40.1847 -83.2483 274° West 366 421 13,300 -1,935 Descending Indianapolis Center
Wed 01:29:41 PM 40.1906 -83.3725 274° West 346 398 11,400 -1,468 Descending Indianapolis Center
Wed 01:30:13 PM 40.1939 -83.4397 274° West 338 389 11,000 -353 Descending Indianapolis Center
Wed 01:30:49 PM 40.1969 -83.5139 273° West 336 387 11,000 -264 Level Indianapolis Center
Wed 01:31:44 PM 40.1944 -83.6197 268° West 344 396 10,600 -564 Descending Indianapolis Center
Wed 01:32:46 PM 40.1842 -83.7481 264° West 353 406 9,900 -339 Descending Indianapolis Center
Wed 01:33:48 PM 40.1767 -83.8703 265° West 340 391 9,900  Level Indianapolis Center
Wed 01:34:53 PM 40.1442 -83.9958 251° West 286 329 9,900 -927 Level Indianapolis Center
Wed 01:35:51 PM 40.1047 -84.0722 236° Southwest 274 315 8,000 -1,850 Descending Indianapolis Center
Wed 01:36:53 PM 40.0631 -84.1500 235° Southwest 267 307 6,200 -1,016 Descending Indianapolis Center
Wed 01:37:55 PM 40.0250 -84.2281 238° Southwest 260 299 5,900 -146 Descending Indianapolis Center
Wed 01:38:56 PM 39.9867 -84.3053 237° Southwest 255 293 5,900 -787 Level Indianapolis Center
Wed 01:39:57 PM 39.9458 -84.3867 237° Southwest 251 289 4,300 -934 Descending Indianapolis Center
Wed 01:40:58 PM 39.9103 -84.4636 239° Southwest 242 278 4,000 -443 Descending Indianapolis Center
Wed 01:41:59 PM 39.8583 -84.5083 213° Southwest 236 272 3,400 -496 Descending Indianapolis Center
Wed 01:42:59 PM 39.8100 -84.4581 141° Southeast 212 244 3,000 -238 Descending Indianapolis Center
Wed 01:44:05 PM 39.8244 -84.3783 77° East 221 254 2,900 -281 Descending Indianapolis Center
Wed 01:45:07 PM 39.8550 -84.3206 55° Northeast 204 235 2,400 -595 Descending Indianapolis Center
Wed 01:45:56 PM 39.8719 -84.2869 57° Northeast 129 148 1,800 -735 Descending Indianapolis Center

Login

Don't have an account? Register now (free) for customized features, flight alerts, and more!